createdAt,value
2019-04-24T00:04:03.427Z,46.80
2019-04-24T00:06:29.951Z,46.99
2019-04-24T00:08:58.922Z,47.29
2019-04-24T00:11:44.265Z,47.59
2019-04-24T00:14:23.897Z,47.59
2019-04-24T00:17:04.250Z,47.89
2019-04-24T00:19:27.695Z,48.33
2019-04-24T00:22:04.932Z,48.46
2019-04-24T00:27:15.427Z,48.33
2019-04-24T00:29:38.726Z,48.45
2019-04-24T00:32:02.361Z,48.54
2019-04-24T00:37:09.579Z,48.71
2019-04-24T00:39:34.977Z,48.81
2019-04-24T00:44:32.658Z,48.99
2019-04-24T00:47:15.866Z,50.25
2019-04-24T00:49:39.932Z,50.01
2019-04-24T00:52:09.367Z,50.17
2019-04-24T00:57:33.672Z,50.58
2019-04-24T00:59:41.643Z,50.61
2019-04-24T01:08:14.543Z,50.11
2019-04-24T01:11:11.780Z,50.79
2019-04-24T01:13:33.227Z,51.25
2019-04-24T01:18:37.071Z,51.01
2019-04-24T01:21:14.504Z,51.25
2019-04-24T01:23:34.798Z,51.82
2019-04-24T01:34:17.789Z,51.28
2019-04-24T01:44:58.322Z,50.81
2019-04-24T01:49:50.037Z,50.62
2019-04-24T01:52:40.441Z,50.85
2019-04-24T01:54:58.820Z,50.89
2019-04-24T01:57:29.175Z,50.93
2019-04-24T01:59:54.956Z,51.37
2019-04-24T02:05:00.470Z,52.39
2019-04-24T02:07:39.062Z,52.52
2019-04-24T02:17:59.016Z,52.96
2019-04-24T02:23:06.678Z,52.40
2019-04-24T02:25:44.899Z,52.80
2019-04-24T02:28:18.773Z,52.89
2019-04-24T02:31:07.841Z,53.02
2019-04-24T02:36:31.924Z,53.36
2019-04-24T02:41:37.575Z,53.42
2019-04-24T02:43:57.090Z,53.48
2019-04-24T02:49:15.301Z,53.26
2019-04-24T03:01:29.676Z,52.95
2019-04-24T03:04:01.548Z,53.14
2019-04-24T03:09:08.059Z,53.46
2019-04-24T03:14:46.787Z,54.11
2019-04-24T03:25:05.643Z,54.43
2019-04-24T03:30:02.625Z,54.52
2019-04-24T03:40:57.601Z,54.96
2019-04-24T03:45:24.292Z,55.04
2019-04-24T03:51:45.073Z,55.07
2019-04-24T04:04:31.826Z,55.87
2019-04-24T04:07:01.799Z,56.33
2019-04-24T04:09:39.679Z,56.91
2019-04-24T04:12:12.800Z,57.47
2019-04-24T04:27:34.407Z,57.01
2019-04-24T04:30:10.106Z,56.84
2019-04-24T04:35:29.715Z,57.72
2019-04-24T04:41:14.100Z,61.78
2019-04-24T04:43:49.018Z,61.26
2019-04-24T04:46:28.860Z,60.07
2019-04-24T04:48:58.403Z,59.08
2019-04-24T04:59:26.922Z,55.41
2019-04-24T05:02:44.737Z,55.22
2019-04-24T05:15:15.030Z,51.60
2019-04-24T05:20:00.659Z,49.03
2019-04-24T05:22:34.249Z,48.73
2019-04-24T05:25:19.519Z,49.03
2019-04-24T05:27:45.192Z,49.14
2019-04-24T05:41:10.040Z,53.24
2019-04-24T05:46:24.442Z,53.54
2019-04-24T05:52:00.529Z,49.77
2019-04-24T05:54:44.324Z,50.83
2019-04-24T06:00:14.596Z,47.77
2019-04-24T06:02:47.893Z,45.03
2019-04-24T06:05:21.154Z,44.53
2019-04-24T06:08:07.079Z,43.95
2019-04-24T06:13:44.801Z,45.36
2019-04-24T06:22:18.629Z,40.43
2019-04-24T06:29:53.431Z,39.36
2019-04-24T06:38:18.498Z,36.75
2019-04-24T06:43:41.519Z,39.11
2019-04-24T06:46:10.549Z,35.85
2019-04-24T06:48:41.158Z,34.49
2019-04-24T06:51:16.296Z,33.88
2019-04-24T06:54:00.821Z,32.36
2019-04-24T06:59:12.479Z,33.33
2019-04-24T07:01:57.854Z,34.87
2019-04-24T07:04:45.484Z,37.50
2019-04-24T07:06:49.237Z,37.06
2019-04-24T07:09:45.630Z,38.34
2019-04-24T07:12:24.426Z,40.09
2019-04-24T07:17:58.673Z,40.24
2019-04-24T07:20:34.664Z,41.36
2019-04-24T07:23:26.398Z,41.98
2019-04-24T07:28:35.089Z,42.11
2019-04-24T07:31:41.558Z,42.18
2019-04-24T07:34:08.814Z,40.65
2019-04-24T07:36:52.363Z,38.50
2019-04-24T07:39:36.970Z,34.59
2019-04-24T07:44:29.141Z,33.36
2019-04-24T07:47:03.045Z,32.54
2019-04-24T07:52:09.700Z,26.63
2019-04-24T07:57:24.922Z,24.76
2019-04-24T08:02:49.713Z,21.51
2019-04-24T08:07:50.584Z,18.63
2019-04-24T08:15:59.909Z,18.84
2019-04-24T08:18:27.840Z,23.22
2019-04-24T08:21:07.008Z,22.91
2019-04-24T08:31:31.349Z,24.78
2019-04-24T08:34:22.442Z,21.66
2019-04-24T08:36:37.268Z,18.25
2019-04-24T08:42:44.889Z,22.87
2019-04-24T08:45:12.815Z,25.82
2019-04-24T08:47:53.913Z,23.82
2019-04-24T08:52:50.828Z,27.28
2019-04-24T08:55:20.113Z,26.63
2019-04-24T09:00:20.077Z,26.42
2019-04-24T09:03:32.577Z,26.30
2019-04-24T09:08:34.998Z,34.49
2019-04-24T09:16:40.823Z,35.39
2019-04-24T09:19:02.745Z,34.14
2019-04-24T09:21:35.242Z,33.04
2019-04-24T09:27:13.046Z,32.20
2019-04-24T09:29:57.212Z,34.07
2019-04-24T09:34:51.574Z,36.04
2019-04-24T09:37:25.058Z,34.13
2019-04-24T09:43:11.254Z,26.48
2019-04-24T09:55:51.479Z,23.59
2019-04-24T09:58:34.160Z,22.18
2019-04-24T10:01:39.930Z,24.61
2019-04-24T10:04:20.662Z,26.40
2019-04-24T10:07:05.532Z,25.49
2019-04-24T10:09:15.119Z,27.92
2019-04-24T10:14:44.597Z,29.40
2019-04-24T10:22:49.193Z,31.42
2019-04-24T10:25:15.823Z,33.03
2019-04-24T10:27:58.173Z,32.50
2019-04-24T10:30:43.728Z,31.52
2019-04-24T10:33:23.687Z,30.27
2019-04-24T10:36:01.836Z,29.48
2019-04-24T10:38:40.231Z,29.21
2019-04-24T10:41:36.965Z,31.40
2019-04-24T10:44:28.590Z,28.41
2019-04-24T10:47:23.467Z,28.58
2019-04-24T10:52:47.769Z,32.09
2019-04-24T10:55:19.886Z,31.19
2019-04-24T10:57:54.785Z,29.07
2019-04-24T11:00:27.975Z,31.55
2019-04-24T11:03:27.296Z,32.13
2019-04-24T11:05:56.162Z,31.92
2019-04-24T11:08:57.717Z,30.22
2019-04-24T11:11:50.881Z,30.10
2019-04-24T11:20:15.602Z,25.93
2019-04-24T11:23:15.021Z,24.43
2019-04-24T11:28:49.315Z,23.37
2019-04-24T11:31:40.016Z,23.07
2019-04-24T11:42:30.578Z,20.18
2019-04-24T11:45:22.901Z,20.84
2019-04-24T11:55:39.101Z,27.14
2019-04-24T12:00:55.421Z,26.10
2019-04-24T12:04:01.861Z,24.46
2019-04-24T12:06:34.249Z,23.59
2019-04-24T12:11:35.970Z,25.33
2019-04-24T12:14:19.252Z,24.99
2019-04-24T12:16:53.335Z,25.77
2019-04-24T12:19:49.499Z,25.91
2019-04-24T12:22:10.445Z,28.05
2019-04-24T12:27:17.211Z,27.12
2019-04-24T12:29:48.662Z,25.56
2019-04-24T12:32:43.459Z,24.95
2019-04-24T12:35:29.665Z,26.41
2019-04-24T12:40:48.800Z,26.81
2019-04-24T12:45:56.718Z,24.82
2019-04-24T12:48:37.366Z,24.85
2019-04-24T12:50:56.329Z,24.07
2019-04-24T12:53:42.102Z,23.00
2019-04-24T12:56:31.997Z,25.43
2019-04-24T12:59:24.753Z,24.73
2019-04-24T13:06:53.839Z,24.23
2019-04-24T13:12:44.366Z,23.41
2019-04-24T13:20:03.165Z,26.00
2019-04-24T13:22:42.002Z,24.01
2019-04-24T13:28:51.935Z,24.31
2019-04-24T13:33:43.087Z,23.19
2019-04-24T13:38:50.967Z,22.46
2019-04-24T13:41:45.764Z,21.37
2019-04-24T13:46:39.502Z,25.03
2019-04-24T13:51:25.606Z,24.52
2019-04-24T13:54:03.825Z,22.87
2019-04-24T13:56:24.851Z,24.79
2019-04-24T13:58:58.601Z,22.70
2019-04-24T14:01:43.442Z,22.03
2019-04-24T14:06:42.564Z,22.00
2019-04-24T14:12:30.544Z,20.37
2019-04-24T14:14:08.653Z,19.01
2019-04-24T14:22:05.880Z,24.21
2019-04-24T14:24:54.971Z,23.79
2019-04-24T14:27:11.547Z,22.63
2019-04-24T14:29:48.921Z,21.90
2019-04-24T14:32:14.574Z,21.22
2019-04-24T14:34:55.392Z,20.75
2019-04-24T14:37:15.761Z,21.90
2019-04-24T14:45:08.582Z,21.20
2019-04-24T14:47:34.726Z,22.20
2019-04-24T14:50:16.219Z,20.83
2019-04-24T14:52:40.509Z,23.25
2019-04-24T15:02:49.609Z,24.31
2019-04-24T15:10:25.337Z,25.01
2019-04-24T15:15:18.508Z,24.95
2019-04-24T15:18:08.546Z,26.10
2019-04-24T15:23:05.602Z,26.29
2019-04-24T15:28:13.983Z,24.85
2019-04-24T15:33:18.125Z,26.47
2019-04-24T15:36:03.089Z,24.96
2019-04-24T15:40:54.106Z,26.08
2019-04-24T15:45:54.587Z,27.09
2019-04-24T15:48:42.921Z,26.31
2019-04-24T15:50:56.691Z,26.62
2019-04-24T15:52:53.162Z,25.34
2019-04-24T15:55:31.485Z,26.31
2019-04-24T15:58:05.489Z,25.67
2019-04-24T16:03:41.105Z,26.49
2019-04-24T16:05:56.404Z,26.42
2019-04-24T16:08:25.914Z,26.25
2019-04-24T16:10:55.405Z,28.04
2019-04-24T16:13:32.582Z,30.07
2019-04-24T16:16:23.874Z,31.78
2019-04-24T16:19:16.183Z,33.77
2019-04-24T16:21:29.704Z,34.71
2019-04-24T16:26:34.136Z,34.97
2019-04-24T16:31:47.658Z,35.45
2019-04-24T16:36:47.221Z,35.19
2019-04-24T16:39:09.462Z,35.21
2019-04-24T16:49:28.980Z,35.23
2019-04-24T16:52:14.331Z,36.85
2019-04-24T16:54:21.617Z,38.04
2019-04-24T16:57:01.749Z,39.86
2019-04-24T16:59:21.970Z,41.66
2019-04-24T17:04:55.597Z,42.74
2019-04-24T17:09:51.120Z,43.62
2019-04-24T17:12:29.193Z,44.23
2019-04-24T17:14:50.530Z,44.00
2019-04-24T17:22:49.827Z,45.26
2019-04-24T17:25:11.522Z,45.31
2019-04-24T17:27:40.961Z,45.78
2019-04-24T17:32:50.711Z,54.73
2019-04-24T17:35:22.537Z,56.60
2019-04-24T17:37:20.114Z,58.67
2019-04-24T17:39:58.076Z,64.21
2019-04-24T17:42:47.585Z,64.71
2019-04-24T17:45:32.356Z,70.23
2019-04-24T17:50:32.147Z,72.68
2019-04-24T17:53:08.293Z,71.70
2019-04-24T17:55:52.077Z,71.71
2019-04-24T17:57:46.386Z,72.25
2019-04-24T18:00:12.384Z,71.89
2019-04-24T18:02:42.450Z,69.77
2019-04-24T18:05:13.049Z,71.72
2019-04-24T18:07:42.827Z,70.77
2019-04-24T18:10:13.214Z,69.05
2019-04-24T18:12:43.208Z,68.16
2019-04-24T18:15:13.140Z,68.79
2019-04-24T18:17:43.036Z,66.95
2019-04-24T18:20:13.542Z,67.07
2019-04-24T18:22:43.446Z,64.64
2019-04-24T18:25:36.713Z,62.71
2019-04-24T18:28:06.382Z,65.25
2019-04-24T18:30:36.070Z,64.52
2019-04-24T18:33:07.374Z,62.88
2019-04-24T18:35:39.127Z,63.96
2019-04-24T18:38:12.817Z,67.11
2019-04-24T18:40:41.378Z,65.67
2019-04-24T18:43:12.221Z,66.85
2019-04-24T18:45:43.724Z,67.89
2019-04-24T18:48:13.754Z,72.45
2019-04-24T18:50:43.679Z,69.07
2019-04-24T18:53:13.923Z,73.09
2019-04-24T18:55:43.800Z,72.37
2019-04-24T18:58:14.611Z,72.00
2019-04-24T19:00:45.142Z,69.90
2019-04-24T19:03:16.315Z,70.49
2019-04-24T19:05:47.151Z,72.51
2019-04-24T19:08:17.602Z,70.96
2019-04-24T19:10:47.430Z,70.79
2019-04-24T19:13:17.722Z,70.98
2019-04-24T19:15:47.569Z,70.42
2019-04-24T19:18:17.129Z,66.83
2019-04-24T19:20:46.599Z,67.66
2019-04-24T19:23:16.248Z,65.08
2019-04-24T19:25:45.734Z,65.62
2019-04-24T19:28:17.058Z,63.44
2019-04-24T19:30:46.572Z,61.83
2019-04-24T19:33:16.250Z,63.93
2019-04-24T19:35:46.598Z,64.11
2019-04-24T19:38:16.127Z,64.99
2019-04-24T19:40:45.588Z,65.65
2019-04-24T19:43:15.430Z,67.47
2019-04-24T19:45:45.015Z,69.66
2019-04-24T19:48:15.211Z,71.04
2019-04-24T19:50:44.702Z,69.78
2019-04-24T19:53:20.357Z,68.12
2019-04-24T19:55:45.574Z,67.37
2019-04-24T19:58:15.891Z,67.42
2019-04-24T20:00:45.437Z,67.19
2019-04-24T20:03:16.044Z,66.82
2019-04-24T20:05:45.933Z,66.09
2019-04-24T20:08:16.292Z,66.09
2019-04-24T20:10:55.991Z,64.90
2019-04-24T20:13:25.706Z,64.33
2019-04-24T20:15:55.415Z,63.88
2019-04-24T20:18:25.207Z,62.95
2019-04-24T20:20:54.969Z,63.45
2019-04-24T20:23:34.554Z,63.79
2019-04-24T20:25:56.255Z,63.04
2019-04-24T20:28:26.080Z,62.90
2019-04-24T20:30:55.901Z,63.57
2019-04-24T20:33:25.595Z,63.28
2019-04-24T20:35:55.271Z,66.12
2019-04-24T20:38:25.006Z,69.65
2019-04-24T20:40:54.713Z,69.77
2019-04-24T20:43:24.754Z,70.60
2019-04-24T20:45:54.482Z,70.08
2019-04-24T20:48:24.181Z,68.85
2019-04-24T20:50:53.872Z,68.22
2019-04-24T20:53:24.608Z,68.57
2019-04-24T20:55:55.025Z,68.62
2019-04-24T20:58:26.019Z,68.15
2019-04-24T21:00:55.975Z,68.63
2019-04-24T21:03:26.156Z,68.59
2019-04-24T21:06:22.316Z,67.86
2019-04-24T21:08:58.730Z,67.55
2019-04-24T21:11:29.080Z,67.13
2019-04-24T21:13:58.869Z,66.91
2019-04-24T21:16:29.130Z,66.32
2019-04-24T21:18:58.844Z,65.72
2019-04-24T21:21:28.440Z,65.72
2019-04-24T21:23:58.175Z,65.24
2019-04-24T21:26:28.603Z,64.86
2019-04-24T21:28:59.009Z,64.79
2019-04-24T21:31:28.688Z,64.36
2019-04-24T21:33:58.332Z,64.01
2019-04-24T21:36:28.227Z,64.18
2019-04-24T21:38:58.254Z,64.68
2019-04-24T21:41:27.963Z,64.59
2019-04-24T21:43:57.849Z,64.47
2019-04-24T21:46:28.169Z,64.52
2019-04-24T21:48:57.975Z,65.32
2019-04-24T21:51:27.813Z,64.79
2019-04-24T21:54:04.267Z,64.57
2019-04-24T21:56:29.076Z,64.79
2019-04-24T21:58:58.771Z,64.74
2019-04-24T22:01:52.073Z,64.30
2019-04-24T22:04:35.603Z,63.91
2019-04-24T22:07:16.567Z,64.99
2019-04-24T22:09:46.494Z,65.64
2019-04-24T22:12:16.782Z,65.07
2019-04-24T22:14:46.585Z,64.63
2019-04-24T22:17:16.415Z,64.32
2019-04-24T22:19:46.227Z,64.01
2019-04-24T22:22:26.025Z,63.68
2019-04-24T22:25:23.441Z,69.34
2019-04-24T22:27:53.341Z,71.70
2019-04-24T22:30:37.409Z,70.81
2019-04-24T22:33:07.035Z,69.66
2019-04-24T22:35:41.960Z,68.70
2019-04-24T22:38:12.523Z,67.93
2019-04-24T22:41:06.970Z,67.85
2019-04-24T22:43:36.663Z,67.83
2019-04-24T22:46:06.140Z,67.74
2019-04-24T22:48:35.567Z,67.39
2019-04-24T22:51:04.961Z,67.28
2019-04-24T22:53:35.119Z,67.20
2019-04-24T22:56:04.526Z,67.78
2019-04-24T22:58:34.833Z,70.12
2019-04-24T23:01:07.028Z,70.70
2019-04-24T23:03:36.983Z,71.37
2019-04-24T23:06:06.604Z,72.55
2019-04-24T23:08:37.438Z,72.16
2019-04-24T23:11:06.953Z,71.75
2019-04-24T23:13:36.453Z,72.04
2019-04-24T23:16:06.441Z,71.37
2019-04-24T23:18:36.313Z,71.11
2019-04-24T23:21:27.891Z,70.64
2019-04-24T23:24:10.850Z,69.96
2019-04-24T23:26:45.530Z,69.32
2019-04-24T23:29:23.971Z,69.25
2019-04-24T23:32:24.600Z,69.77
2019-04-24T23:34:54.784Z,71.02
2019-04-24T23:37:24.181Z,71.20
2019-04-24T23:39:53.587Z,70.27
2019-04-24T23:42:22.958Z,70.11
2019-04-24T23:44:52.390Z,71.14
2019-04-24T23:47:21.765Z,71.57
2019-04-24T23:49:51.883Z,72.03
2019-04-24T23:52:22.328Z,71.05
2019-04-24T23:55:02.797Z,70.11
2019-04-24T23:57:22.873Z,69.39
2019-04-24T23:59:52.279Z,68.75
